Time;durP1;ratioP1;P1;durP2;ratioP2;P2;SDS_P1;SDS_P2;PMS_P1;PMS_P2;Temp;Humidity;BMP_temperature;BMP_pressure;BME280_temperature;BME280_humidity;BME280_pressure;Samples;Min_cycle;Max_cycle;Signal;HPM_P1;HPM_P2
2023/01/24 00:01:21;;;;;;;20.38;9.77;;;;;;;;;;6336896;22;20290;-86
2023/01/24 00:03:48;;;;;;;21.75;10.30;;;;;;;;;;6336789;22;20110;-85
2023/01/24 00:06:18;;;;;;;19.60;8.55;;;;;;;;;;6336812;22;20018;-85
2023/01/24 00:08:44;;;;;;;19.63;9.05;;;;;;;;;;6336490;22;20039;-85
2023/01/24 00:11:11;;;;;;;19.80;8.93;;;;;;;;;;6334847;22;20390;-86
2023/01/24 00:13:38;;;;;;;20.40;10.30;;;;;;;;;;6307024;22;20086;-86
2023/01/24 00:16:16;;;;;;;19.42;10.02;;;;;;;;;;6333862;22;20035;-86
2023/01/24 00:18:42;;;;;;;21.77;10.43;;;;;;;;;;6306694;22;20023;-86
2023/01/24 00:21:17;;;;;;;19.85;9.40;;;;;;;;;;6334871;22;20096;-85
2023/01/24 00:23:45;;;;;;;24.48;10.50;;;;;;;;;;6334777;22;20063;-85
2023/01/24 00:26:12;;;;;;;21.67;10.20;;;;;;;;;;6334744;22;20027;-85
2023/01/24 00:28:38;;;;;;;20.52;9.73;;;;;;;;;;6334516;22;20320;-85
2023/01/24 00:31:05;;;;;;;21.48;10.57;;;;;;;;;;6334683;22;20472;-86
2023/01/24 00:33:32;;;;;;;21.23;10.88;;;;;;;;;;6335902;22;20023;-86
2023/01/24 00:35:59;;;;;;;20.77;9.45;;;;;;;;;;6334726;22;20088;-85
2023/01/24 00:38:27;;;;;;;22.63;10.70;;;;;;;;;;6334955;22;20030;-86
2023/01/24 00:40:54;;;;;;;21.98;10.93;;;;;;;;;;6334849;22;20019;-85
2023/01/24 00:43:20;;;;;;;23.77;10.70;;;;;;;;;;6335282;22;20031;-86
2023/01/24 00:45:46;;;;;;;25.40;11.15;;;;;;;;;;6334389;22;20019;-85
2023/01/24 00:48:13;;;;;;;20.02;10.20;;;;;;;;;;6334574;22;20103;-85
2023/01/24 00:50:39;;;;;;;25.75;11.13;;;;;;;;;;6333352;22;20023;-85
2023/01/24 00:53:06;;;;;;;25.50;11.48;;;;;;;;;;6335286;22;20030;-85
2023/01/24 00:55:32;;;;;;;21.25;10.55;;;;;;;;;;6334853;22;20027;-86
2023/01/24 00:57:59;;;;;;;23.80;11.00;;;;;;;;;;6306744;22;20073;-86
2023/01/24 01:00:26;;;;;;;24.90;10.95;;;;;;;;;;6307563;22;20615;-86
2023/01/24 01:02:52;;;;;;;24.98;10.90;;;;;;;;;;6333919;22;20436;-85
2023/01/24 01:05:19;;;;;;;21.40;10.40;;;;;;;;;;6306490;22;20341;-85
2023/01/24 01:07:45;;;;;;;24.17;10.45;;;;;;;;;;6306840;22;20415;-85
2023/01/24 01:10:12;;;;;;;22.70;10.13;;;;;;;;;;6333779;22;20098;-86
2023/01/24 01:12:41;;;;;;;21.35;10.85;;;;;;;;;;6307737;22;20066;-86
2023/01/24 01:15:08;;;;;;;24.70;10.38;;;;;;;;;;6306193;22;20026;-85
2023/01/24 01:17:34;;;;;;;20.88;9.55;;;;;;;;;;6333529;22;20070;-85
2023/01/24 01:20:00;;;;;;;21.42;10.07;;;;;;;;;;6333985;22;20050;-86
2023/01/24 01:22:27;;;;;;;21.98;10.43;;;;;;;;;;6334505;22;20027;-85
2023/01/24 01:24:53;;;;;;;23.50;10.05;;;;;;;;;;6334255;22;20031;-85
2023/01/24 01:27:19;;;;;;;22.58;10.05;;;;;;;;;;6333805;22;20098;-85
2023/01/24 01:29:46;;;;;;;26.95;11.48;;;;;;;;;;6333916;22;20023;-85
2023/01/24 01:32:12;;;;;;;27.40;12.43;;;;;;;;;;6334884;22;20542;-85
2023/01/24 01:34:39;;;;;;;24.27;10.85;;;;;;;;;;6334716;22;20088;-86
2023/01/24 01:37:05;;;;;;;21.05;10.18;;;;;;;;;;6305776;22;20023;-85
2023/01/24 01:39:31;;;;;;;23.95;10.85;;;;;;;;;;6333401;22;20053;-86
2023/01/24 01:41:58;;;;;;;24.27;11.10;;;;;;;;;;6334275;22;20050;-85
2023/01/24 01:44:38;;;;;;;24.83;11.15;;;;;;;;;;6334511;22;20527;-85
2023/01/24 01:47:08;;;;;;;21.58;10.38;;;;;;;;;;6334395;22;20465;-85
2023/01/24 01:49:35;;;;;;;24.77;10.77;;;;;;;;;;6333221;22;20449;-85
2023/01/24 01:52:03;;;;;;;20.65;9.98;;;;;;;;;;6306588;22;20090;-85
2023/01/24 01:54:35;;;;;;;20.15;9.40;;;;;;;;;;6334116;22;20456;-86
2023/01/24 01:57:07;;;;;;;18.65;9.00;;;;;;;;;;6333987;22;20107;-86
2023/01/24 01:59:38;;;;;;;19.60;8.85;;;;;;;;;;6333795;22;20027;-85
2023/01/24 02:02:05;;;;;;;18.95;8.80;;;;;;;;;;6306153;22;20427;-86
2023/01/24 02:04:34;;;;;;;18.23;8.90;;;;;;;;;;6334160;22;20027;-85
2023/01/24 02:07:03;;;;;;;20.65;8.95;;;;;;;;;;6334254;22;20034;-86
2023/01/24 02:09:36;;;;;;;19.13;9.07;;;;;;;;;;6333268;22;20027;-85
2023/01/24 02:12:04;;;;;;;21.52;9.38;;;;;;;;;;6334351;22;20506;-86
2023/01/24 02:17:20;;;;;;;20.65;9.63;;;;;;;;;;6334498;22;20042;-86
2023/01/24 02:20:06;;;;;;;21.50;9.48;;;;;;;;;;6333078;22;20030;-85
2023/01/24 02:22:49;;;;;;;19.45;9.20;;;;;;;;;;6333174;22;20019;-86
2023/01/24 02:25:15;;;;;;;19.92;9.38;;;;;;;;;;6331794;22;20495;-86
2023/01/24 02:27:41;;;;;;;22.85;10.85;;;;;;;;;;6334575;22;20027;-86
2023/01/24 02:30:08;;;;;;;21.30;9.77;;;;;;;;;;6334462;22;20031;-85
2023/01/24 02:32:34;;;;;;;19.30;8.88;;;;;;;;;;6332297;22;20025;-85
2023/01/24 02:35:02;;;;;;;21.05;9.10;;;;;;;;;;6306143;22;20864;-86
2023/01/24 02:37:28;;;;;;;21.30;9.60;;;;;;;;;;6333839;22;20027;-85
2023/01/24 02:40:01;;;;;;;21.17;9.77;;;;;;;;;;6306047;22;20054;-86
2023/01/24 02:42:36;;;;;;;19.42;9.05;;;;;;;;;;6332677;22;20030;-85
2023/01/24 02:45:02;;;;;;;22.00;9.52;;;;;;;;;;6305288;22;20503;-85
2023/01/24 02:47:32;;;;;;;22.00;10.15;;;;;;;;;;6307326;22;20051;-85
2023/01/24 02:49:59;;;;;;;19.98;10.15;;;;;;;;;;6334101;22;20066;-85
2023/01/24 02:55:11;;;;;;;20.15;9.23;;;;;;;;;;6333833;22;20030;-86
2023/01/24 03:00:22;;;;;;;21.15;9.98;;;;;;;;;;6333355;22;20019;-86
2023/01/24 03:02:49;;;;;;;22.25;10.27;;;;;;;;;;6333882;22;20414;-86
2023/01/24 03:05:15;;;;;;;24.55;11.15;;;;;;;;;;6333164;22;20832;-86
2023/01/24 03:07:44;;;;;;;18.73;9.70;;;;;;;;;;6333233;22;20043;-86
2023/01/24 03:10:11;;;;;;;21.63;10.07;;;;;;;;;;6332652;22;20023;-86
2023/01/24 03:34:51;;;;;;;22.55;9.98;;;;;;;;;;6338613;22;20058;-86
2023/01/24 03:39:53;;;;;;;20.55;9.55;;;;;;;;;;6337462;22;20809;-86
2023/01/24 03:40:06;;;;;;;20.33;9.45;;;;;;;;;;6346950;22;20023;-87
2023/01/24 03:42:33;;;;;;;22.35;9.77;;;;;;;;;;6350322;22;20043;-86
2023/01/24 03:44:59;;;;;;;20.00;9.48;;;;;;;;;;6322494;22;20027;-86
2023/01/24 03:47:26;;;;;;;20.60;9.23;;;;;;;;;;6349042;22;20106;-86
2023/01/24 03:52:37;;;;;;;21.83;9.52;;;;;;;;;;6351333;22;20461;-86
2023/01/24 03:55:04;;;;;;;18.73;8.80;;;;;;;;;;6352870;22;20031;-86
2023/01/24 03:57:30;;;;;;;20.23;9.57;;;;;;;;;;6350087;22;20047;-86
2023/01/24 03:59:57;;;;;;;20.17;9.75;;;;;;;;;;6344782;22;20055;-86
2023/01/24 04:02:23;;;;;;;21.52;10.07;;;;;;;;;;6316470;22;20019;-87
2023/01/24 04:07:35;;;;;;;22.55;10.02;;;;;;;;;;6343940;22;20008;-86
2023/01/24 04:10:01;;;;;;;22.20;10.77;;;;;;;;;;6318739;22;20049;-86
2023/01/24 04:12:27;;;;;;;21.17;10.35;;;;;;;;;;6344251;22;20020;-87
2023/01/24 04:14:54;;;;;;;21.65;11.13;;;;;;;;;;6344262;22;20048;-86
2023/01/24 04:17:20;;;;;;;23.55;10.23;;;;;;;;;;6343473;22;20438;-87
2023/01/24 04:19:47;;;;;;;20.73;10.63;;;;;;;;;;6343566;22;20023;-86
2023/01/24 04:22:15;;;;;;;24.38;11.27;;;;;;;;;;6344821;22;20012;-86
2023/01/24 04:24:42;;;;;;;22.27;11.43;;;;;;;;;;6344623;22;20027;-86
2023/01/24 04:27:08;;;;;;;21.13;10.55;;;;;;;;;;6344131;22;20730;-87
2023/01/24 04:29:34;;;;;;;24.63;10.73;;;;;;;;;;6345152;22;20058;-86
2023/01/24 04:32:01;;;;;;;21.15;10.43;;;;;;;;;;6345949;22;20019;-87
2023/01/24 04:34:27;;;;;;;25.63;11.63;;;;;;;;;;6318777;22;20523;-87
2023/01/24 04:36:54;;;;;;;25.77;12.40;;;;;;;;;;6343304;22;20066;-86
2023/01/24 04:39:20;;;;;;;22.77;11.15;;;;;;;;;;6343750;22;20094;-86
2023/01/24 04:41:46;;;;;;;23.67;11.48;;;;;;;;;;6315870;22;20015;-86
2023/01/24 04:44:13;;;;;;;23.00;11.18;;;;;;;;;;6342307;22;20038;-86
2023/01/24 04:46:39;;;;;;;24.35;10.82;;;;;;;;;;6341808;22;20015;-86
2023/01/24 04:49:06;;;;;;;28.13;12.30;;;;;;;;;;6339601;22;20023;-86
2023/01/24 04:51:32;;;;;;;26.27;11.27;;;;;;;;;;6341336;22;20023;-85
2023/01/24 04:53:58;;;;;;;23.02;11.25;;;;;;;;;;6314688;22;20440;-85
2023/01/24 04:56:25;;;;;;;23.40;10.75;;;;;;;;;;6342206;22;20023;-86
2023/01/24 04:58:51;;;;;;;22.55;11.70;;;;;;;;;;6342047;22;20023;-86
2023/01/24 05:01:18;;;;;;;23.67;11.02;;;;;;;;;;6341457;22;20023;-86
2023/01/24 05:03:44;;;;;;;25.23;11.70;;;;;;;;;;6340681;22;20388;-85
2023/01/24 05:06:10;;;;;;;25.35;11.75;;;;;;;;;;6313000;22;20008;-86
2023/01/24 05:08:37;;;;;;;23.73;11.48;;;;;;;;;;6339549;22;20023;-85
2023/01/24 05:11:04;;;;;;;23.70;11.13;;;;;;;;;;6340549;22;20021;-86
2023/01/24 05:13:30;;;;;;;23.75;10.93;;;;;;;;;;6339005;22;20110;-85
2023/01/24 05:15:56;;;;;;;25.17;11.70;;;;;;;;;;6339800;22;20022;-85
2023/01/24 05:18:23;;;;;;;27.27;12.80;;;;;;;;;;6339612;22;20110;-86
2023/01/24 05:20:49;;;;;;;24.85;11.43;;;;;;;;;;6340390;22;20027;-86
2023/01/24 05:23:15;;;;;;;24.40;11.48;;;;;;;;;;6339478;22;20023;-86
2023/01/24 05:25:42;;;;;;;24.38;11.52;;;;;;;;;;6312857;22;20027;-86
2023/01/24 05:28:08;;;;;;;24.33;12.02;;;;;;;;;;6343680;22;20034;-85
2023/01/24 05:30:35;;;;;;;24.73;12.05;;;;;;;;;;6315820;22;20011;-86
2023/01/24 05:33:01;;;;;;;26.83;11.95;;;;;;;;;;6342943;22;20019;-86
2023/01/24 05:35:27;;;;;;;25.88;12.30;;;;;;;;;;6343645;22;20055;-86
2023/01/24 05:37:54;;;;;;;30.48;13.52;;;;;;;;;;6343005;22;20023;-86
2023/01/24 05:40:20;;;;;;;27.27;12.68;;;;;;;;;;6342936;22;20106;-86
2023/01/24 05:42:46;;;;;;;28.27;12.23;;;;;;;;;;6340883;22;20033;-86
2023/01/24 05:45:13;;;;;;;29.02;13.52;;;;;;;;;;6340911;22;20026;-86
2023/01/24 05:47:39;;;;;;;28.98;13.02;;;;;;;;;;6340992;22;20023;-86
2023/01/24 05:50:06;;;;;;;28.08;13.00;;;;;;;;;;6314101;22;20019;-86
2023/01/24 05:52:32;;;;;;;31.17;13.70;;;;;;;;;;6343326;22;20134;-85
2023/01/24 05:54:58;;;;;;;30.50;14.20;;;;;;;;;;6314225;22;20531;-86
2023/01/24 05:57:25;;;;;;;30.52;13.77;;;;;;;;;;6342098;22;20027;-86
2023/01/24 05:59:51;;;;;;;30.00;12.50;;;;;;;;;;6346861;22;20098;-86
2023/01/24 06:02:20;;;;;;;30.05;13.40;;;;;;;;;;6341673;22;20015;-87
2023/01/24 06:04:46;;;;;;;29.23;13.35;;;;;;;;;;6340660;22;20527;-86
2023/01/24 06:07:13;;;;;;;30.95;13.35;;;;;;;;;;6311817;22;20566;-86
2023/01/24 06:09:39;;;;;;;29.27;13.60;;;;;;;;;;6339445;22;20019;-86
2023/01/24 06:12:06;;;;;;;27.48;13.10;;;;;;;;;;6338326;22;20030;-86
2023/01/24 06:14:32;;;;;;;30.88;12.90;;;;;;;;;;6337787;22;20102;-87
2023/01/24 06:16:59;;;;;;;29.17;13.73;;;;;;;;;;6338000;22;20031;-87
2023/01/24 06:19:26;;;;;;;30.48;13.38;;;;;;;;;;6307699;22;20031;-86
2023/01/24 06:21:56;;;;;;;30.05;13.52;;;;;;;;;;6308895;22;20027;-87
2023/01/24 06:24:24;;;;;;;30.95;14.05;;;;;;;;;;6338745;22;20026;-86
2023/01/24 06:26:51;;;;;;;29.88;13.63;;;;;;;;;;6312000;22;20456;-86
2023/01/24 06:29:22;;;;;;;30.42;13.15;;;;;;;;;;6337748;22;20019;-86
2023/01/24 06:31:51;;;;;;;30.02;12.68;;;;;;;;;;6341376;22;20403;-86
2023/01/24 06:34:37;;;;;;;28.83;12.70;;;;;;;;;;6339268;22;20073;-86
2023/01/24 06:37:12;;;;;;;29.85;12.93;;;;;;;;;;6311186;22;20023;-86
2023/01/24 06:39:38;;;;;;;26.55;12.48;;;;;;;;;;6336586;22;20396;-86
2023/01/24 06:42:05;;;;;;;30.85;13.25;;;;;;;;;;6336103;22;20471;-86
2023/01/24 06:44:31;;;;;;;32.30;13.40;;;;;;;;;;6336114;22;20030;-86
2023/01/24 06:46:58;;;;;;;31.58;12.73;;;;;;;;;;6336148;22;20031;-86
2023/01/24 06:49:24;;;;;;;29.65;12.88;;;;;;;;;;6335201;22;20027;-86
2023/01/24 06:51:55;;;;;;;;;;;;;;;;;;6336523;22;20077;-85
2023/01/24 06:54:21;;;;;;;29.63;12.73;;;;;;;;;;6336756;22;43466;-84
2023/01/24 06:56:48;;;;;;;31.35;13.50;;;;;;;;;;6337861;22;20477;-84
2023/01/24 06:59:14;;;;;;;31.40;13.57;;;;;;;;;;6308511;22;20038;-87
2023/01/24 07:01:41;;;;;;;34.28;14.55;;;;;;;;;;6337303;22;20376;-85
2023/01/24 07:04:07;;;;;;;31.75;13.02;;;;;;;;;;6337221;22;20187;-85
2023/01/24 07:06:33;;;;;;;33.45;13.80;;;;;;;;;;6336995;22;20478;-84
2023/01/24 07:09:00;;;;;;;34.55;13.32;;;;;;;;;;6337435;22;20085;-85
2023/01/24 07:11:27;;;;;;;29.70;13.27;;;;;;;;;;6335835;22;20492;-85
2023/01/24 07:13:53;;;;;;;31.58;13.48;;;;;;;;;;6309507;22;20113;-85
2023/01/24 07:16:19;;;;;;;33.45;13.85;;;;;;;;;;6335360;22;20098;-85
2023/01/24 07:18:46;;;;;;;32.80;14.48;;;;;;;;;;6335530;22;20028;-85
2023/01/24 07:21:12;;;;;;;30.85;13.70;;;;;;;;;;6337764;22;20405;-85
2023/01/24 07:23:42;;;;;;;30.55;14.27;;;;;;;;;;6338301;22;20023;-85
2023/01/24 07:26:11;;;;;;;33.53;15.30;;;;;;;;;;6339427;22;20111;-85
2023/01/24 07:28:37;;;;;;;33.35;13.93;;;;;;;;;;6310246;22;20098;-85
2023/01/24 07:31:04;;;;;;;35.58;15.15;;;;;;;;;;6339515;22;20100;-85
2023/01/24 07:33:30;;;;;;;34.45;14.93;;;;;;;;;;6308488;22;20106;-86
2023/01/24 07:35:56;;;;;;;34.38;14.80;;;;;;;;;;6336093;22;20466;-86
2023/01/24 07:38:23;;;;;;;30.73;13.20;;;;;;;;;;6336463;22;20031;-86
2023/01/24 07:40:49;;;;;;;33.38;14.35;;;;;;;;;;6336127;22;20102;-85
2023/01/24 07:43:16;;;;;;;31.17;14.05;;;;;;;;;;6308488;22;20023;-85
2023/01/24 07:45:45;;;;;;;32.75;13.98;;;;;;;;;;6335904;22;20062;-85
2023/01/24 07:48:12;;;;;;;30.98;14.15;;;;;;;;;;6306660;22;20046;-85
2023/01/24 07:50:41;;;;;;;34.60;14.77;;;;;;;;;;6336162;22;20077;-85
2023/01/24 07:53:07;;;;;;;31.27;13.95;;;;;;;;;;6335322;22;20032;-85
2023/01/24 07:55:33;;;;;;;30.60;14.40;;;;;;;;;;6335419;22;20033;-85
2023/01/24 07:58:01;;;;;;;32.67;13.77;;;;;;;;;;6307508;22;20033;-85
2023/01/24 08:00:28;;;;;;;34.13;13.48;;;;;;;;;;6307590;22;20535;-85
2023/01/24 08:02:54;;;;;;;30.60;12.68;;;;;;;;;;6333920;22;20023;-85
2023/01/24 08:05:21;;;;;;;29.65;13.15;;;;;;;;;;6334716;22;20117;-85
2023/01/24 08:07:48;;;;;;;29.35;13.68;;;;;;;;;;6306908;22;20019;-85
2023/01/24 08:10:14;;;;;;;31.92;13.82;;;;;;;;;;6336077;22;20475;-85
2023/01/24 08:12:40;;;;;;;29.70;13.50;;;;;;;;;;6336126;22;20028;-85
2023/01/24 08:15:07;;;;;;;28.80;12.98;;;;;;;;;;6335330;22;20023;-85
2023/01/24 08:17:34;;;;;;;30.52;13.30;;;;;;;;;;6335294;22;20094;-85
2023/01/24 08:20:01;;;;;;;27.23;12.35;;;;;;;;;;6336553;22;20023;-85
2023/01/24 08:22:27;;;;;;;28.55;12.38;;;;;;;;;;6309156;22;20027;-85
2023/01/24 08:24:53;;;;;;;29.13;13.00;;;;;;;;;;6336167;22;20110;-85
2023/01/24 08:27:20;;;;;;;28.45;12.40;;;;;;;;;;6336043;22;20074;-85
2023/01/24 08:29:46;;;;;;;29.15;12.60;;;;;;;;;;6308706;22;20062;-85
2023/01/24 08:32:13;;;;;;;27.38;12.40;;;;;;;;;;6334972;22;20038;-85
2023/01/24 08:34:39;;;;;;;26.98;11.88;;;;;;;;;;6336438;22;20027;-85
2023/01/24 08:37:05;;;;;;;25.70;12.05;;;;;;;;;;6336313;22;20046;-85
2023/01/24 08:39:32;;;;;;;25.83;12.70;;;;;;;;;;6308191;22;20027;-86
2023/01/24 08:41:59;;;;;;;27.35;12.25;;;;;;;;;;6336788;22;20089;-85
2023/01/24 08:44:25;;;;;;;26.35;11.68;;;;;;;;;;6336335;22;20038;-85
2023/01/24 08:46:51;;;;;;;26.95;11.18;;;;;;;;;;6336272;22;20054;-85
2023/01/24 08:49:18;;;;;;;27.08;12.07;;;;;;;;;;6335146;22;20027;-85
2023/01/24 08:51:45;;;;;;;28.35;12.23;;;;;;;;;;6335089;22;20027;-85
2023/01/24 08:54:12;;;;;;;29.05;12.68;;;;;;;;;;6335650;22;20028;-85
2023/01/24 08:56:39;;;;;;;32.22;13.18;;;;;;;;;;6335203;22;20023;-85
2023/01/24 08:59:07;;;;;;;30.00;12.90;;;;;;;;;;6308087;22;20114;-85
2023/01/24 09:01:33;;;;;;;25.40;11.88;;;;;;;;;;6335497;22;20023;-85
2023/01/24 09:04:00;;;;;;;28.65;11.70;;;;;;;;;;6335534;22;20031;-85
2023/01/24 09:06:26;;;;;;;28.63;11.82;;;;;;;;;;6335181;22;20023;-85
2023/01/24 09:08:53;;;;;;;27.15;12.40;;;;;;;;;;6335630;22;20034;-85
2023/01/24 09:11:20;;;;;;;25.77;11.50;;;;;;;;;;6306881;22;20077;-86
2023/01/24 09:13:47;;;;;;;26.52;11.32;;;;;;;;;;6307604;22;20023;-84
2023/01/24 09:16:13;;;;;;;28.85;11.60;;;;;;;;;;6306214;22;20517;-84
2023/01/24 09:18:40;;;;;;;27.45;12.10;;;;;;;;;;6306356;22;20089;-84
2023/01/24 09:21:06;;;;;;;26.52;11.50;;;;;;;;;;6334963;22;20027;-83
2023/01/24 09:23:33;;;;;;;25.73;11.80;;;;;;;;;;6307696;22;20027;-84
2023/01/24 09:25:59;;;;;;;22.60;10.95;;;;;;;;;;6335827;22;20019;-85
2023/01/24 09:28:27;;;;;;;29.95;12.07;;;;;;;;;;6307521;22;20023;-84
2023/01/24 09:30:53;;;;;;;28.48;12.27;;;;;;;;;;6335350;22;20107;-85
2023/01/24 09:33:20;;;;;;;27.98;11.45;;;;;;;;;;6334936;22;20025;-84
2023/01/24 09:35:54;;;;;;;26.90;12.00;;;;;;;;;;6306323;22;20043;-85
2023/01/24 09:38:22;;;;;;;29.02;12.65;;;;;;;;;;6306995;22;20030;-84
2023/01/24 09:41:07;;;;;;;26.75;11.90;;;;;;;;;;6334799;22;20603;-85
2023/01/24 09:43:42;;;;;;;30.08;12.32;;;;;;;;;;6307733;22;20077;-84
2023/01/24 09:46:24;;;;;;;26.30;11.23;;;;;;;;;;6307753;22;20019;-84
2023/01/24 09:48:54;;;;;;;29.67;11.80;;;;;;;;;;6335131;22;20019;-84
2023/01/24 09:51:27;;;;;;;27.42;11.25;;;;;;;;;;6342605;22;20387;-84
2023/01/24 09:53:55;;;;;;;27.73;11.27;;;;;;;;;;6346965;22;20035;-85
2023/01/24 09:56:30;;;;;;;27.92;12.15;;;;;;;;;;6347191;22;20099;-85
2023/01/24 09:59:09;;;;;;;27.85;11.95;;;;;;;;;;6349287;22;20128;-85
2023/01/24 10:01:40;;;;;;;28.17;11.82;;;;;;;;;;6346751;22;20023;-85
2023/01/24 10:04:13;;;;;;;24.42;11.27;;;;;;;;;;6306743;22;20462;-85
2023/01/24 10:06:41;;;;;;;26.77;11.80;;;;;;;;;;6333748;22;20030;-85
2023/01/24 10:09:12;;;;;;;32.42;12.57;;;;;;;;;;6334958;22;20027;-85
2023/01/24 10:11:47;;;;;;;28.08;11.40;;;;;;;;;;6334452;22;20032;-85
2023/01/24 10:14:16;;;;;;;28.25;12.35;;;;;;;;;;6334120;22;20674;-85
2023/01/24 10:17:01;;;;;;;26.73;12.32;;;;;;;;;;6306272;22;20027;-85
2023/01/24 10:19:36;;;;;;;29.63;12.25;;;;;;;;;;6333325;22;20459;-86
2023/01/24 10:22:22;;;;;;;27.98;11.88;;;;;;;;;;6335168;22;20027;-86
2023/01/24 10:24:55;;;;;;;25.23;10.95;;;;;;;;;;6306643;22;20390;-86
2023/01/24 10:27:27;;;;;;;29.80;12.60;;;;;;;;;;6333914;22;20594;-85
2023/01/24 10:29:57;;;;;;;27.02;12.20;;;;;;;;;;6306104;22;20026;-85
2023/01/24 10:32:29;;;;;;;28.45;11.35;;;;;;;;;;6335208;22;20102;-86
2023/01/24 10:35:17;;;;;;;27.80;11.55;;;;;;;;;;6334297;22;20931;-86
2023/01/24 10:37:44;;;;;;;28.35;12.52;;;;;;;;;;6334137;22;20518;-85
2023/01/24 10:40:12;;;;;;;28.00;12.73;;;;;;;;;;6306536;22;20127;-86
2023/01/24 10:42:39;;;;;;;25.60;11.45;;;;;;;;;;6333796;22;20798;-86
2023/01/24 10:45:30;;;;;;;27.13;12.38;;;;;;;;;;6333947;22;20024;-85
2023/01/24 10:47:59;;;;;;;;;;;;;;;;;;6306468;22;20031;-86
2023/01/24 10:50:40;;;;;;;26.63;11.35;;;;;;;;;;6333065;22;42187;-86
2023/01/24 10:53:22;;;;;;;28.20;12.15;;;;;;;;;;6307647;22;20078;-85
2023/01/24 10:56:00;;;;;;;26.42;11.75;;;;;;;;;;6307225;22;20084;-84
2023/01/24 10:58:28;;;;;;;26.75;11.35;;;;;;;;;;6306809;22;20080;-85
2023/01/24 11:01:06;;;;;;;25.67;10.70;;;;;;;;;;6334208;22;20027;-85
2023/01/24 11:03:38;;;;;;;25.40;11.25;;;;;;;;;;6306924;22;20546;-85
2023/01/24 11:06:20;;;;;;;27.42;11.70;;;;;;;;;;6333565;22;20019;-86
2023/01/24 11:08:52;;;;;;;28.63;12.73;;;;;;;;;;6332336;22;20468;-85
2023/01/24 11:11:28;;;;;;;25.10;11.18;;;;;;;;;;6334609;22;20106;-84
2023/01/24 11:14:03;;;;;;;26.33;11.35;;;;;;;;;;6333360;22;20023;-85
2023/01/24 11:16:39;;;;;;;25.60;11.57;;;;;;;;;;6334566;22;20029;-85
2023/01/24 11:19:19;;;;;;;24.58;11.13;;;;;;;;;;6333114;22;20058;-86
2023/01/24 11:21:52;;;;;;;23.48;10.90;;;;;;;;;;6305225;22;20215;-86
2023/01/24 11:24:20;;;;;;;24.73;10.80;;;;;;;;;;6305123;22;20024;-85
2023/01/24 11:27:13;;;;;;;20.80;10.45;;;;;;;;;;6334411;22;20023;-84
2023/01/24 11:29:39;;;;;;;29.15;11.93;;;;;;;;;;6332414;22;20093;-85
2023/01/24 11:32:06;;;;;;;24.20;11.30;;;;;;;;;;6332739;22;20111;-85
2023/01/24 11:34:43;;;;;;;22.20;11.18;;;;;;;;;;6305973;22;20096;-86
2023/01/24 11:37:17;;;;;;;23.33;10.18;;;;;;;;;;6333064;22;20038;-83
2023/01/24 11:39:43;;;;;;;23.85;10.07;;;;;;;;;;6335407;22;20338;-85
2023/01/24 11:42:16;;;;;;;25.00;11.60;;;;;;;;;;6334187;22;20031;-85
2023/01/24 11:44:54;;;;;;;24.73;11.57;;;;;;;;;;6333794;22;20030;-84
2023/01/24 11:47:24;;;;;;;22.67;10.10;;;;;;;;;;6334636;22;20073;-84
2023/01/24 11:50:09;;;;;;;25.95;10.65;;;;;;;;;;6332422;22;20028;-85
2023/01/24 11:52:54;;;;;;;26.83;11.77;;;;;;;;;;6333275;22;20113;-86
2023/01/24 11:55:35;;;;;;;22.40;11.00;;;;;;;;;;6303832;22;20578;-86
2023/01/24 11:58:05;;;;;;;22.50;10.05;;;;;;;;;;6305974;22;20027;-86
2023/01/24 12:00:44;;;;;;;22.45;10.63;;;;;;;;;;6332969;22;20027;-86
2023/01/24 12:03:16;;;;;;;23.65;11.07;;;;;;;;;;6333715;22;20104;-86
2023/01/24 12:05:57;;;;;;;25.23;11.25;;;;;;;;;;6333744;22;20434;-86
2023/01/24 12:08:42;;;;;;;21.73;12.00;;;;;;;;;;6335625;22;20435;-86
2023/01/24 12:11:09;;;;;;;21.52;10.52;;;;;;;;;;6334617;22;20031;-86
2023/01/24 12:14:15;;;;;;;22.75;11.48;;;;;;;;;;6310652;22;20025;-86
2023/01/24 12:17:05;;;;;;;22.50;11.25;;;;;;;;;;6230664;22;20023;-86
2023/01/24 12:19:51;;;;;;;23.65;11.73;;;;;;;;;;6332451;22;20024;-86
2023/01/24 12:22:22;;;;;;;25.02;11.10;;;;;;;;;;6307016;22;20030;-86
2023/01/24 12:25:01;;;;;;;25.20;11.38;;;;;;;;;;6306928;22;20023;-86
2023/01/24 12:27:28;;;;;;;21.25;11.02;;;;;;;;;;6335652;22;20082;-86
2023/01/24 12:29:59;;;;;;;26.30;11.38;;;;;;;;;;6332455;22;20023;-86
2023/01/24 12:32:28;;;;;;;24.50;10.88;;;;;;;;;;6332896;22;20035;-86
2023/01/24 12:34:57;;;;;;;23.77;11.18;;;;;;;;;;6334710;22;20027;-86
2023/01/24 12:37:27;;;;;;;25.08;12.07;;;;;;;;;;6306721;22;20058;-86
2023/01/24 12:40:04;;;;;;;24.67;11.60;;;;;;;;;;6307158;22;20073;-86
2023/01/24 12:42:40;;;;;;;24.38;11.65;;;;;;;;;;6334979;22;20480;-86
2023/01/24 12:45:11;;;;;;;25.55;11.45;;;;;;;;;;6334068;22;20092;-86
2023/01/24 12:47:41;;;;;;;25.55;11.50;;;;;;;;;;6333128;22;20051;-86
2023/01/24 12:50:13;;;;;;;21.90;11.48;;;;;;;;;;6331873;22;20353;-86
2023/01/24 12:52:50;;;;;;;23.83;11.55;;;;;;;;;;6333241;22;20498;-86
2023/01/24 12:55:27;;;;;;;25.55;11.82;;;;;;;;;;6332807;22;20041;-86
2023/01/24 12:57:53;;;;;;;25.45;11.70;;;;;;;;;;6305242;22;20049;-86
2023/01/24 13:00:21;;;;;;;23.35;11.50;;;;;;;;;;6306970;22;20296;-86
2023/01/24 13:02:51;;;;;;;21.30;11.23;;;;;;;;;;6307006;22;20506;-86
2023/01/24 13:05:28;;;;;;;26.17;11.23;;;;;;;;;;6334053;22;20396;-86
2023/01/24 13:08:04;;;;;;;25.67;11.13;;;;;;;;;;6334144;22;20027;-86
2023/01/24 13:10:36;;;;;;;23.02;10.65;;;;;;;;;;6307528;22;20065;-86
2023/01/24 13:13:04;;;;;;;22.33;10.45;;;;;;;;;;6334258;22;20066;-86
2023/01/24 13:15:50;;;;;;;24.33;11.20;;;;;;;;;;6308073;22;20023;-85
2023/01/24 13:18:23;;;;;;;25.15;11.88;;;;;;;;;;6305341;22;20486;-86
2023/01/24 13:21:09;;;;;;;23.15;11.15;;;;;;;;;;6334006;22;20146;-86
2023/01/24 13:23:44;;;;;;;25.25;11.00;;;;;;;;;;6334330;22;20023;-86
2023/01/24 13:26:23;;;;;;;26.05;11.50;;;;;;;;;;6333782;22;20101;-86
2023/01/24 13:29:00;;;;;;;23.95;12.02;;;;;;;;;;6306877;22;20548;-86
2023/01/24 13:31:29;;;;;;;23.65;11.70;;;;;;;;;;6335264;22;20023;-86
2023/01/24 13:34:02;;;;;;;27.02;12.52;;;;;;;;;;6306690;22;20027;-87
2023/01/24 13:36:32;;;;;;;28.73;12.02;;;;;;;;;;6306994;22;20520;-86
2023/01/24 13:39:00;;;;;;;26.40;11.98;;;;;;;;;;6306924;22;20490;-86
2023/01/24 13:41:29;;;;;;;26.08;12.65;;;;;;;;;;6333260;22;20304;-86
2023/01/24 13:43:59;;;;;;;24.98;12.15;;;;;;;;;;6333224;22;20027;-86
2023/01/24 13:46:41;;;;;;;23.77;11.45;;;;;;;;;;6335599;22;20034;-86
2023/01/24 13:49:18;;;;;;;23.52;12.02;;;;;;;;;;6303756;22;20027;-86
2023/01/24 13:51:45;;;;;;;24.25;11.75;;;;;;;;;;6333123;22;20139;-86
2023/01/24 13:54:12;;;;;;;25.35;11.90;;;;;;;;;;6306799;22;20455;-86
2023/01/24 13:56:57;;;;;;;28.25;12.73;;;;;;;;;;6334083;22;20108;-87
2023/01/24 13:59:24;;;;;;;27.10;12.68;;;;;;;;;;6305451;22;20117;-86
2023/01/24 14:01:50;;;;;;;26.30;12.63;;;;;;;;;;6306337;22;20113;-86
2023/01/24 14:04:17;;;;;;;23.98;12.07;;;;;;;;;;6334038;22;20019;-86
2023/01/24 14:06:47;;;;;;;28.58;13.20;;;;;;;;;;6334793;22;20026;-86
2023/01/24 14:09:21;;;;;;;23.08;12.88;;;;;;;;;;6334681;22;20027;-86
2023/01/24 14:11:58;;;;;;;24.50;12.15;;;;;;;;;;6334608;22;20023;-86
2023/01/24 14:14:32;;;;;;;22.70;12.13;;;;;;;;;;6306901;22;20030;-86
2023/01/24 14:17:04;;;;;;;24.20;12.18;;;;;;;;;;6308295;22;20458;-86
2023/01/24 14:19:36;;;;;;;23.20;11.60;;;;;;;;;;6334495;22;20023;-86
2023/01/24 14:22:08;;;;;;;25.75;12.77;;;;;;;;;;6334790;22;20051;-86
2023/01/24 14:24:51;;;;;;;24.42;12.10;;;;;;;;;;6334517;22;20027;-86
2023/01/24 14:27:19;;;;;;;25.35;12.80;;;;;;;;;;6334450;22;20117;-86
2023/01/24 14:29:54;;;;;;;23.73;12.40;;;;;;;;;;6333607;22;20558;-86
2023/01/24 14:32:24;;;;;;;22.27;11.55;;;;;;;;;;6334530;22;20133;-86
2023/01/24 14:34:58;;;;;;;26.02;12.20;;;;;;;;;;6333453;22;20081;-86
2023/01/24 14:37:55;;;;;;;24.55;11.63;;;;;;;;;;6305446;22;20493;-86
2023/01/24 14:40:38;;;;;;;25.90;12.32;;;;;;;;;;6235488;22;20024;-86
2023/01/24 14:43:05;;;;;;;23.35;11.48;;;;;;;;;;6238244;22;20032;-86
2023/01/24 14:45:32;;;;;;;22.42;10.88;;;;;;;;;;6211336;22;20095;-86
2023/01/24 14:47:59;;;;;;;27.25;12.77;;;;;;;;;;6210120;22;20024;-86
2023/01/24 14:50:33;;;;;;;24.33;12.48;;;;;;;;;;6235575;22;20525;-86
2023/01/24 14:53:21;;;;;;;24.75;11.63;;;;;;;;;;6236767;22;20477;-86
2023/01/24 14:55:47;;;;;;;25.73;13.20;;;;;;;;;;6235188;22;20496;-86
2023/01/24 14:58:21;;;;;;;25.00;12.38;;;;;;;;;;6235906;22;20286;-86
2023/01/24 15:00:49;;;;;;;25.45;11.93;;;;;;;;;;6236382;22;20024;-86
2023/01/24 15:03:18;;;;;;;23.45;12.25;;;;;;;;;;6236927;22;20029;-85
2023/01/24 15:05:49;;;;;;;23.88;12.13;;;;;;;;;;6237660;22;20024;-86
2023/01/24 15:08:19;;;;;;;25.80;12.85;;;;;;;;;;6237069;22;20021;-86
2023/01/24 15:10:50;;;;;;;23.90;11.70;;;;;;;;;;6236448;22;20052;-86